Barra Bonita, Brazil
Current Conditions -  °F | °C
As of 10:00 AM on Tuesday 21 Oct 2014 (Local Time) from SBBU Reporting Station
Clear Clear  
Wind Chill: 72°   Ceiling: Unl
Heat Index: 72°   Visibility: 6mi
Dew Point: 61°   Wind: 16mph
Humidity: 69%   Direction: 150°SSE
Pressure: 30.12"   Gusts: 44mph
Location:  22.49°S, 48.56°W
Report Text: SBBU 211200Z 15014G38KT CAVOK 22/16 Q1020
Loading
Personal Weather Stations






























Interactive Weather Map
Tropical Storm Tracking
New forecast layout! Learn more

10-Day Weather Forecast

Advertisements
Track Severe Weather on mobile